sensor_id;sensor_type;location;lat;lon;timestamp;temperature;humidity
18339;DHT22;9295;44.484;11.240;2023-05-07T00:01:48;16.70;99.90
18339;DHT22;9295;44.484;11.240;2023-05-07T00:04:18;16.70;99.90
18339;DHT22;9295;44.484;11.240;2023-05-07T00:06:46;16.60;99.90
18339;DHT22;9295;44.484;11.240;2023-05-07T00:09:15;16.60;99.90
18339;DHT22;9295;44.484;11.240;2023-05-07T00:11:43;16.60;99.90
18339;DHT22;9295;44.484;11.240;2023-05-07T00:14:12;16.60;99.90
18339;DHT22;9295;44.484;11.240;2023-05-07T00:16:40;16.60;99.90
18339;DHT22;9295;44.484;11.240;2023-05-07T00:19:08;16.50;99.90
18339;DHT22;9295;44.484;11.240;2023-05-07T00:21:38;16.40;99.90
18339;DHT22;9295;44.484;11.240;2023-05-07T00:24:06;16.40;99.90
18339;DHT22;9295;44.484;11.240;2023-05-07T00:26:35;16.40;99.90
18339;DHT22;9295;44.484;11.240;2023-05-07T00:29:03;16.40;99.90
18339;DHT22;9295;44.484;11.240;2023-05-07T00:31:32;16.30;99.90
18339;DHT22;9295;44.484;11.240;2023-05-07T00:34:01;16.30;99.90
18339;DHT22;9295;44.484;11.240;2023-05-07T00:36:29;16.20;99.90
18339;DHT22;9295;44.484;11.240;2023-05-07T00:39:00;16.20;99.90
18339;DHT22;9295;44.484;11.240;2023-05-07T00:41:30;16.20;99.90
18339;DHT22;9295;44.484;11.240;2023-05-07T00:43:58;16.20;99.90
18339;DHT22;9295;44.484;11.240;2023-05-07T00:46:27;16.20;99.90
18339;DHT22;9295;44.484;11.240;2023-05-07T00:48:57;16.20;99.90
18339;DHT22;9295;44.484;11.240;2023-05-07T00:51:26;16.20;99.90
18339;DHT22;9295;44.484;11.240;2023-05-07T00:53:55;16.20;99.90
18339;DHT22;9295;44.484;11.240;2023-05-07T00:56:25;16.30;99.90
18339;DHT22;9295;44.484;11.240;2023-05-07T00:58:55;16.30;99.90
18339;DHT22;9295;44.484;11.240;2023-05-07T01:01:23;16.20;99.90
18339;DHT22;9295;44.484;11.240;2023-05-07T01:03:53;16.10;99.90
18339;DHT22;9295;44.484;11.240;2023-05-07T01:06:23;16.10;99.90
18339;DHT22;9295;44.484;11.240;2023-05-07T01:08:53;16.00;99.90
18339;DHT22;9295;44.484;11.240;2023-05-07T01:11:25;15.90;99.90
18339;DHT22;9295;44.484;11.240;2023-05-07T01:13:53;16.00;99.90
18339;DHT22;9295;44.484;11.240;2023-05-07T01:16:22;15.90;99.90
18339;DHT22;9295;44.484;11.240;2023-05-07T01:18:50;15.90;99.90
18339;DHT22;9295;44.484;11.240;2023-05-07T01:21:25;15.90;99.90
18339;DHT22;9295;44.484;11.240;2023-05-07T01:23:58;15.80;99.90
18339;DHT22;9295;44.484;11.240;2023-05-07T01:26:28;15.80;99.90
18339;DHT22;9295;44.484;11.240;2023-05-07T01:28:56;15.80;99.90
18339;DHT22;9295;44.484;11.240;2023-05-07T01:31:25;15.80;99.90
18339;DHT22;9295;44.484;11.240;2023-05-07T01:33:54;15.70;99.90
18339;DHT22;9295;44.484;11.240;2023-05-07T01:36:24;15.70;99.90
18339;DHT22;9295;44.484;11.240;2023-05-07T01:38:54;15.70;99.90
18339;DHT22;9295;44.484;11.240;2023-05-07T01:41:27;15.60;99.90
18339;DHT22;9295;44.484;11.240;2023-05-07T01:43:56;15.60;99.90
18339;DHT22;9295;44.484;11.240;2023-05-07T01:46:26;15.60;99.90
18339;DHT22;9295;44.484;11.240;2023-05-07T01:48:55;15.70;99.90
18339;DHT22;9295;44.484;11.240;2023-05-07T01:51:23;15.70;99.90
18339;DHT22;9295;44.484;11.240;2023-05-07T01:53:53;15.70;99.90
18339;DHT22;9295;44.484;11.240;2023-05-07T01:56:22;15.70;99.90
18339;DHT22;9295;44.484;11.240;2023-05-07T01:58:52;15.70;99.90
18339;DHT22;9295;44.484;11.240;2023-05-07T02:01:20;15.70;99.90
18339;DHT22;9295;44.484;11.240;2023-05-07T02:03:49;15.70;99.90
18339;DHT22;9295;44.484;11.240;2023-05-07T02:06:23;15.70;99.90
18339;DHT22;9295;44.484;11.240;2023-05-07T02:08:55;15.70;99.90
18339;DHT22;9295;44.484;11.240;2023-05-07T02:11:24;15.70;99.90
18339;DHT22;9295;44.484;11.240;2023-05-07T02:13:54;15.70;99.90
18339;DHT22;9295;44.484;11.240;2023-05-07T02:16:22;15.70;99.90
18339;DHT22;9295;44.484;11.240;2023-05-07T02:18:52;15.70;99.90
18339;DHT22;9295;44.484;11.240;2023-05-07T02:21:20;15.60;99.90
18339;DHT22;9295;44.484;11.240;2023-05-07T02:23:48;15.60;99.90
18339;DHT22;9295;44.484;11.240;2023-05-07T02:26:17;15.50;99.90
18339;DHT22;9295;44.484;11.240;2023-05-07T02:28:46;15.50;99.90
18339;DHT22;9295;44.484;11.240;2023-05-07T02:31:16;15.60;99.90
18339;DHT22;9295;44.484;11.240;2023-05-07T02:33:44;15.50;99.90
18339;DHT22;9295;44.484;11.240;2023-05-07T02:36:14;15.60;99.90
18339;DHT22;9295;44.484;11.240;2023-05-07T02:38:51;15.60;99.90
18339;DHT22;9295;44.484;11.240;2023-05-07T02:41:19;15.50;99.90
18339;DHT22;9295;44.484;11.240;2023-05-07T02:43:48;15.50;99.90
18339;DHT22;9295;44.484;11.240;2023-05-07T02:46:18;15.50;99.90
18339;DHT22;9295;44.484;11.240;2023-05-07T02:48:53;15.60;99.90
18339;DHT22;9295;44.484;11.240;2023-05-07T02:51:22;15.50;99.90
18339;DHT22;9295;44.484;11.240;2023-05-07T02:53:54;15.50;99.90
18339;DHT22;9295;44.484;11.240;2023-05-07T02:56:23;15.50;99.90
18339;DHT22;9295;44.484;11.240;2023-05-07T02:58:51;15.40;99.90
18339;DHT22;9295;44.484;11.240;2023-05-07T03:01:23;15.40;99.90
18339;DHT22;9295;44.484;11.240;2023-05-07T03:04:03;15.30;99.90
18339;DHT22;9295;44.484;11.240;2023-05-07T03:06:32;15.30;99.90
18339;DHT22;9295;44.484;11.240;2023-05-07T03:09:00;15.30;99.90
18339;DHT22;9295;44.484;11.240;2023-05-07T03:11:29;15.20;99.90
18339;DHT22;9295;44.484;11.240;2023-05-07T03:13:58;15.20;99.90
18339;DHT22;9295;44.484;11.240;2023-05-07T03:16:28;15.20;99.90
18339;DHT22;9295;44.484;11.240;2023-05-07T03:18:56;15.20;99.90
18339;DHT22;9295;44.484;11.240;2023-05-07T03:21:25;15.20;99.90
18339;DHT22;9295;44.484;11.240;2023-05-07T03:23:55;15.30;99.90
18339;DHT22;9295;44.484;11.240;2023-05-07T03:26:23;15.30;99.90
18339;DHT22;9295;44.484;11.240;2023-05-07T03:28:52;15.30;99.90
18339;DHT22;9295;44.484;11.240;2023-05-07T03:31:20;15.30;99.90
18339;DHT22;9295;44.484;11.240;2023-05-07T03:33:52;15.30;99.90
18339;DHT22;9295;44.484;11.240;2023-05-07T03:36:20;15.20;99.90
18339;DHT22;9295;44.484;11.240;2023-05-07T03:38:50;15.20;99.90
18339;DHT22;9295;44.484;11.240;2023-05-07T03:41:21;15.10;99.90
18339;DHT22;9295;44.484;11.240;2023-05-07T03:43:50;15.10;99.90
18339;DHT22;9295;44.484;11.240;2023-05-07T03:46:19;15.00;99.90
18339;DHT22;9295;44.484;11.240;2023-05-07T03:48:47;15.00;99.90
18339;DHT22;9295;44.484;11.240;2023-05-07T03:51:18;15.00;99.90
18339;DHT22;9295;44.484;11.240;2023-05-07T03:53:46;15.10;99.90
18339;DHT22;9295;44.484;11.240;2023-05-07T03:56:15;15.20;99.90
18339;DHT22;9295;44.484;11.240;2023-05-07T03:58:47;15.20;99.90
18339;DHT22;9295;44.484;11.240;2023-05-07T04:01:15;15.20;99.90
18339;DHT22;9295;44.484;11.240;2023-05-07T04:03:44;15.20;99.90
18339;DHT22;9295;44.484;11.240;2023-05-07T04:06:12;15.20;99.90
18339;DHT22;9295;44.484;11.240;2023-05-07T04:08:45;15.10;99.90
18339;DHT22;9295;44.484;11.240;2023-05-07T04:11:13;15.20;99.90
18339;DHT22;9295;44.484;11.240;2023-05-07T04:13:42;15.20;99.90
18339;DHT22;9295;44.484;11.240;2023-05-07T04:16:10;15.30;99.90
18339;DHT22;9295;44.484;11.240;2023-05-07T04:18:39;15.40;99.90
18339;DHT22;9295;44.484;11.240;2023-05-07T04:21:14;15.40;99.90
18339;DHT22;9295;44.484;11.240;2023-05-07T04:23:45;15.50;99.90
18339;DHT22;9295;44.484;11.240;2023-05-07T04:26:14;15.50;99.90
18339;DHT22;9295;44.484;11.240;2023-05-07T04:28:44;15.60;99.90
18339;DHT22;9295;44.484;11.240;2023-05-07T04:31:14;15.80;99.90
18339;DHT22;9295;44.484;11.240;2023-05-07T04:33:44;15.80;99.90
18339;DHT22;9295;44.484;11.240;2023-05-07T04:36:14;15.90;99.90
18339;DHT22;9295;44.484;11.240;2023-05-07T04:38:59;16.00;99.90
18339;DHT22;9295;44.484;11.240;2023-05-07T04:41:27;16.00;99.90
18339;DHT22;9295;44.484;11.240;2023-05-07T04:43:56;16.10;99.90
18339;DHT22;9295;44.484;11.240;2023-05-07T04:46:28;16.10;99.90
18339;DHT22;9295;44.484;11.240;2023-05-07T04:48:57;16.20;99.90
18339;DHT22;9295;44.484;11.240;2023-05-07T04:51:26;16.10;99.90
18339;DHT22;9295;44.484;11.240;2023-05-07T04:53:55;16.20;99.90
18339;DHT22;9295;44.484;11.240;2023-05-07T04:56:27;16.20;99.90
18339;DHT22;9295;44.484;11.240;2023-05-07T04:58:56;16.30;99.90
18339;DHT22;9295;44.484;11.240;2023-05-07T05:01:25;16.30;99.90
18339;DHT22;9295;44.484;11.240;2023-05-07T05:03:53;16.40;99.90
18339;DHT22;9295;44.484;11.240;2023-05-07T05:06:22;16.60;99.90
18339;DHT22;9295;44.484;11.240;2023-05-07T05:08:51;16.60;99.90
18339;DHT22;9295;44.484;11.240;2023-05-07T05:11:21;16.80;99.90
18339;DHT22;9295;44.484;11.240;2023-05-07T05:13:50;17.00;99.90
18339;DHT22;9295;44.484;11.240;2023-05-07T05:16:20;17.80;99.90
18339;DHT22;9295;44.484;11.240;2023-05-07T05:18:49;18.90;99.90
18339;DHT22;9295;44.484;11.240;2023-05-07T05:21:19;20.60;99.90
18339;DHT22;9295;44.484;11.240;2023-05-07T05:23:51;22.20;99.90
18339;DHT22;9295;44.484;11.240;2023-05-07T05:26:22;23.90;99.90
18339;DHT22;9295;44.484;11.240;2023-05-07T05:28:52;25.30;99.90
18339;DHT22;9295;44.484;11.240;2023-05-07T05:31:23;26.10;99.90
18339;DHT22;9295;44.484;11.240;2023-05-07T05:33:51;26.70;99.90
18339;DHT22;9295;44.484;11.240;2023-05-07T05:36:20;27.50;99.90
18339;DHT22;9295;44.484;11.240;2023-05-07T05:38:51;28.40;99.90
18339;DHT22;9295;44.484;11.240;2023-05-07T05:41:19;29.30;99.90
18339;DHT22;9295;44.484;11.240;2023-05-07T05:43:49;29.90;99.90
18339;DHT22;9295;44.484;11.240;2023-05-07T05:46:20;30.30;99.10
18339;DHT22;9295;44.484;11.240;2023-05-07T05:48:51;30.90;96.00
18339;DHT22;9295;44.484;11.240;2023-05-07T05:51:21;31.30;95.20
18339;DHT22;9295;44.484;11.240;2023-05-07T05:53:50;31.70;93.60
18339;DHT22;9295;44.484;11.240;2023-05-07T05:56:19;31.90;92.50
18339;DHT22;9295;44.484;11.240;2023-05-07T05:58:48;31.00;91.40
18339;DHT22;9295;44.484;11.240;2023-05-07T06:01:17;31.30;91.90
18339;DHT22;9295;44.484;11.240;2023-05-07T06:03:48;32.10;90.30
18339;DHT22;9295;44.484;11.240;2023-05-07T06:06:17;32.70;88.00
18339;DHT22;9295;44.484;11.240;2023-05-07T06:08:45;32.80;86.10
18339;DHT22;9295;44.484;11.240;2023-05-07T06:11:19;33.10;84.30
18339;DHT22;9295;44.484;11.240;2023-05-07T06:13:48;32.80;83.60
18339;DHT22;9295;44.484;11.240;2023-05-07T06:16:17;33.20;82.70
18339;DHT22;9295;44.484;11.240;2023-05-07T06:18:45;33.10;79.60
18339;DHT22;9295;44.484;11.240;2023-05-07T06:21:16;32.30;80.70
18339;DHT22;9295;44.484;11.240;2023-05-07T06:23:45;32.00;83.70
18339;DHT22;9295;44.484;11.240;2023-05-07T06:26:14;32.20;81.70
18339;DHT22;9295;44.484;11.240;2023-05-07T06:28:46;32.40;80.10
18339;DHT22;9295;44.484;11.240;2023-05-07T06:31:17;32.50;78.50
18339;DHT22;9295;44.484;11.240;2023-05-07T06:34:01;33.00;77.10
18339;DHT22;9295;44.484;11.240;2023-05-07T06:36:35;33.10;75.20
18339;DHT22;9295;44.484;11.240;2023-05-07T06:39:15;33.10;73.80
18339;DHT22;9295;44.484;11.240;2023-05-07T06:41:44;33.00;73.70
18339;DHT22;9295;44.484;11.240;2023-05-07T06:44:22;33.00;73.20
18339;DHT22;9295;44.484;11.240;2023-05-07T06:46:59;33.10;73.50
18339;DHT22;9295;44.484;11.240;2023-05-07T06:49:29;33.00;73.00
18339;DHT22;9295;44.484;11.240;2023-05-07T06:51:59;32.50;72.20
18339;DHT22;9295;44.484;11.240;2023-05-07T06:54:29;32.30;73.40
18339;DHT22;9295;44.484;11.240;2023-05-07T06:56:58;32.40;74.30
18339;DHT22;9295;44.484;11.240;2023-05-07T06:59:27;32.90;75.70
18339;DHT22;9295;44.484;11.240;2023-05-07T07:01:56;32.80;73.40
18339;DHT22;9295;44.484;11.240;2023-05-07T07:04:24;32.90;74.90
18339;DHT22;9295;44.484;11.240;2023-05-07T07:07:02;32.30;73.40
18339;DHT22;9295;44.484;11.240;2023-05-07T07:09:31;32.20;74.50
18339;DHT22;9295;44.484;11.240;2023-05-07T07:12:01;32.00;74.50
18339;DHT22;9295;44.484;11.240;2023-05-07T07:14:30;32.30;74.00
18339;DHT22;9295;44.484;11.240;2023-05-07T07:16:58;32.20;74.30
18339;DHT22;9295;44.484;11.240;2023-05-07T07:19:27;32.00;74.30
18339;DHT22;9295;44.484;11.240;2023-05-07T07:21:57;31.60;75.60
18339;DHT22;9295;44.484;11.240;2023-05-07T07:24:27;31.80;75.30
18339;DHT22;9295;44.484;11.240;2023-05-07T07:26:59;31.60;75.70
18339;DHT22;9295;44.484;11.240;2023-05-07T07:29:28;31.80;74.90
18339;DHT22;9295;44.484;11.240;2023-05-07T07:31:56;31.80;75.80
18339;DHT22;9295;44.484;11.240;2023-05-07T07:34:26;32.70;74.60
18339;DHT22;9295;44.484;11.240;2023-05-07T07:36:55;33.10;72.70
18339;DHT22;9295;44.484;11.240;2023-05-07T07:39:24;33.40;71.40
18339;DHT22;9295;44.484;11.240;2023-05-07T07:41:57;33.80;69.10
18339;DHT22;9295;44.484;11.240;2023-05-07T07:44:27;33.90;69.50
18339;DHT22;9295;44.484;11.240;2023-05-07T07:47:00;34.40;68.40
18339;DHT22;9295;44.484;11.240;2023-05-07T07:49:29;34.40;67.70
18339;DHT22;9295;44.484;11.240;2023-05-07T07:52:02;34.40;66.70
18339;DHT22;9295;44.484;11.240;2023-05-07T07:54:32;34.20;67.30
18339;DHT22;9295;44.484;11.240;2023-05-07T07:57:03;34.20;66.60
18339;DHT22;9295;44.484;11.240;2023-05-07T07:59:33;33.10;67.30
18339;DHT22;9295;44.484;11.240;2023-05-07T08:02:02;32.10;69.50
18339;DHT22;9295;44.484;11.240;2023-05-07T08:04:30;31.00;72.10
18339;DHT22;9295;44.484;11.240;2023-05-07T08:07:03;30.20;74.80
18339;DHT22;9295;44.484;11.240;2023-05-07T08:09:36;29.90;77.60
18339;DHT22;9295;44.484;11.240;2023-05-07T08:12:06;29.90;79.30
18339;DHT22;9295;44.484;11.240;2023-05-07T08:14:35;30.00;80.90
18339;DHT22;9295;44.484;11.240;2023-05-07T08:17:06;29.80;82.40
18339;DHT22;9295;44.484;11.240;2023-05-07T08:19:35;30.10;82.60
18339;DHT22;9295;44.484;11.240;2023-05-07T08:22:06;30.10;82.50
18339;DHT22;9295;44.484;11.240;2023-05-07T08:24:35;30.10;83.20
18339;DHT22;9295;44.484;11.240;2023-05-07T08:27:03;29.60;82.70
18339;DHT22;9295;44.484;11.240;2023-05-07T08:29:34;29.20;84.50
18339;DHT22;9295;44.484;11.240;2023-05-07T08:32:03;29.00;85.90
18339;DHT22;9295;44.484;11.240;2023-05-07T08:34:32;29.10;85.90
18339;DHT22;9295;44.484;11.240;2023-05-07T08:37:05;28.90;87.10
18339;DHT22;9295;44.484;11.240;2023-05-07T08:39:35;28.80;89.30
18339;DHT22;9295;44.484;11.240;2023-05-07T08:42:09;28.70;86.50
18339;DHT22;9295;44.484;11.240;2023-05-07T08:44:42;28.60;88.40
18339;DHT22;9295;44.484;11.240;2023-05-07T08:47:15;28.70;89.80
18339;DHT22;9295;44.484;11.240;2023-05-07T08:49:45;28.90;90.10
18339;DHT22;9295;44.484;11.240;2023-05-07T08:52:14;29.00;88.80
18339;DHT22;9295;44.484;11.240;2023-05-07T08:54:43;29.10;89.30
18339;DHT22;9295;44.484;11.240;2023-05-07T08:57:12;29.00;88.10
18339;DHT22;9295;44.484;11.240;2023-05-07T08:59:42;29.00;86.90
18339;DHT22;9295;44.484;11.240;2023-05-07T09:02:11;28.80;85.20
18339;DHT22;9295;44.484;11.240;2023-05-07T09:04:40;28.60;84.10
18339;DHT22;9295;44.484;11.240;2023-05-07T09:07:11;28.60;87.90
18339;DHT22;9295;44.484;11.240;2023-05-07T09:09:44;28.60;87.90
18339;DHT22;9295;44.484;11.240;2023-05-07T09:12:14;28.70;88.80
18339;DHT22;9295;44.484;11.240;2023-05-07T09:14:43;28.80;88.40
18339;DHT22;9295;44.484;11.240;2023-05-07T09:17:13;28.70;89.20
18339;DHT22;9295;44.484;11.240;2023-05-07T09:19:42;28.60;89.30
18339;DHT22;9295;44.484;11.240;2023-05-07T09:22:12;28.70;90.00
18339;DHT22;9295;44.484;11.240;2023-05-07T09:24:52;28.70;90.60
18339;DHT22;9295;44.484;11.240;2023-05-07T09:27:25;28.70;90.70
18339;DHT22;9295;44.484;11.240;2023-05-07T09:29:57;28.80;90.60
18339;DHT22;9295;44.484;11.240;2023-05-07T09:32:25;28.70;90.50
18339;DHT22;9295;44.484;11.240;2023-05-07T09:35:00;28.40;91.70
18339;DHT22;9295;44.484;11.240;2023-05-07T09:37:31;27.90;91.70
18339;DHT22;9295;44.484;11.240;2023-05-07T09:39:59;27.70;91.90
18339;DHT22;9295;44.484;11.240;2023-05-07T09:42:30;27.80;91.90
18339;DHT22;9295;44.484;11.240;2023-05-07T09:45:05;27.90;92.10
18339;DHT22;9295;44.484;11.240;2023-05-07T09:47:39;27.70;92.50
18339;DHT22;9295;44.484;11.240;2023-05-07T09:50:10;27.70;92.70
18339;DHT22;9295;44.484;11.240;2023-05-07T09:52:40;27.60;92.50
18339;DHT22;9295;44.484;11.240;2023-05-07T09:55:11;27.40;93.00
18339;DHT22;9295;44.484;11.240;2023-05-07T09:57:42;27.10;93.30
18339;DHT22;9295;44.484;11.240;2023-05-07T10:00:13;26.70;93.60
18339;DHT22;9295;44.484;11.240;2023-05-07T10:02:49;26.60;94.10
18339;DHT22;9295;44.484;11.240;2023-05-07T10:05:26;26.80;94.20
18339;DHT22;9295;44.484;11.240;2023-05-07T10:07:57;26.70;94.80
18339;DHT22;9295;44.484;11.240;2023-05-07T10:10:29;26.60;95.40
18339;DHT22;9295;44.484;11.240;2023-05-07T10:12:59;26.50;95.60
18339;DHT22;9295;44.484;11.240;2023-05-07T10:15:34;26.60;95.80
18339;DHT22;9295;44.484;11.240;2023-05-07T10:18:03;26.50;94.80
18339;DHT22;9295;44.484;11.240;2023-05-07T10:20:33;26.40;95.80
18339;DHT22;9295;44.484;11.240;2023-05-07T10:23:05;26.20;96.20
18339;DHT22;9295;44.484;11.240;2023-05-07T10:25:40;26.00;96.70
18339;DHT22;9295;44.484;11.240;2023-05-07T10:28:18;26.00;96.50
18339;DHT22;9295;44.484;11.240;2023-05-07T10:30:59;26.00;96.80
18339;DHT22;9295;44.484;11.240;2023-05-07T10:33:37;26.10;97.00
18339;DHT22;9295;44.484;11.240;2023-05-07T10:36:08;26.30;96.60
18339;DHT22;9295;44.484;11.240;2023-05-07T10:38:36;26.20;96.60
18339;DHT22;9295;44.484;11.240;2023-05-07T10:41:05;26.20;96.70
18339;DHT22;9295;44.484;11.240;2023-05-07T10:43:41;26.10;96.10
18339;DHT22;9295;44.484;11.240;2023-05-07T10:46:18;26.10;96.50
18339;DHT22;9295;44.484;11.240;2023-05-07T10:49:11;26.30;96.20
18339;DHT22;9295;44.484;11.240;2023-05-07T10:52:15;26.50;95.80
18339;DHT22;9295;44.484;11.240;2023-05-07T10:55:20;26.70;95.70
18339;DHT22;9295;44.484;11.240;2023-05-07T10:58:22;26.70;96.10
18339;DHT22;9295;44.484;11.240;2023-05-07T11:01:06;26.80;95.70
18339;DHT22;9295;44.484;11.240;2023-05-07T11:04:16;26.80;94.80
18339;DHT22;9295;44.484;11.240;2023-05-07T11:07:31;26.90;95.00
18339;DHT22;9295;44.484;11.240;2023-05-07T11:10:06;26.90;95.30
18339;DHT22;9295;44.484;11.240;2023-05-07T11:12:54;26.80;95.90
18339;DHT22;9295;44.484;11.240;2023-05-07T11:15:35;26.60;95.40
18339;DHT22;9295;44.484;11.240;2023-05-07T11:18:11;26.40;95.30
18339;DHT22;9295;44.484;11.240;2023-05-07T11:20:46;26.40;95.90
18339;DHT22;9295;44.484;11.240;2023-05-07T11:23:55;26.60;95.80
18339;DHT22;9295;44.484;11.240;2023-05-07T11:26:45;26.70;96.00
18339;DHT22;9295;44.484;11.240;2023-05-07T11:29:15;26.80;95.60
18339;DHT22;9295;44.484;11.240;2023-05-07T11:31:50;26.40;95.70
18339;DHT22;9295;44.484;11.240;2023-05-07T11:34:22;26.10;96.10
18339;DHT22;9295;44.484;11.240;2023-05-07T11:36:53;26.30;96.00
18339;DHT22;9295;44.484;11.240;2023-05-07T11:39:32;26.10;95.60
18339;DHT22;9295;44.484;11.240;2023-05-07T11:42:03;26.00;95.90
18339;DHT22;9295;44.484;11.240;2023-05-07T11:44:42;26.10;96.00
18339;DHT22;9295;44.484;11.240;2023-05-07T11:47:11;26.30;95.50
18339;DHT22;9295;44.484;11.240;2023-05-07T11:49:39;26.10;95.20
18339;DHT22;9295;44.484;11.240;2023-05-07T11:52:10;26.00;95.40
18339;DHT22;9295;44.484;11.240;2023-05-07T11:54:38;26.20;95.60
18339;DHT22;9295;44.484;11.240;2023-05-07T11:57:14;26.30;95.00
18339;DHT22;9295;44.484;11.240;2023-05-07T11:59:43;26.30;95.00
18339;DHT22;9295;44.484;11.240;2023-05-07T12:02:14;26.10;94.60
18339;DHT22;9295;44.484;11.240;2023-05-07T12:04:43;26.10;94.10
18339;DHT22;9295;44.484;11.240;2023-05-07T12:07:14;26.20;93.80
18339;DHT22;9295;44.484;11.240;2023-05-07T12:09:44;26.40;93.20
18339;DHT22;9295;44.484;11.240;2023-05-07T12:12:13;26.50;93.30
18339;DHT22;9295;44.484;11.240;2023-05-07T12:14:45;26.50;92.90
18339;DHT22;9295;44.484;11.240;2023-05-07T12:17:14;26.70;93.00
18339;DHT22;9295;44.484;11.240;2023-05-07T12:19:44;26.70;93.30
18339;DHT22;9295;44.484;11.240;2023-05-07T12:22:14;26.90;93.00
18339;DHT22;9295;44.484;11.240;2023-05-07T12:24:44;26.60;94.60
18339;DHT22;9295;44.484;11.240;2023-05-07T12:27:13;26.60;95.10
18339;DHT22;9295;44.484;11.240;2023-05-07T12:29:44;26.70;95.60
18339;DHT22;9295;44.484;11.240;2023-05-07T12:32:14;26.70;95.90
18339;DHT22;9295;44.484;11.240;2023-05-07T12:34:43;26.70;95.90
18339;DHT22;9295;44.484;11.240;2023-05-07T12:37:14;26.70;96.10
18339;DHT22;9295;44.484;11.240;2023-05-07T12:39:47;26.70;96.40
18339;DHT22;9295;44.484;11.240;2023-05-07T12:42:16;26.50;96.60
18339;DHT22;9295;44.484;11.240;2023-05-07T12:44:50;26.70;97.20
18339;DHT22;9295;44.484;11.240;2023-05-07T12:47:20;26.90;97.20
18339;DHT22;9295;44.484;11.240;2023-05-07T12:49:49;27.00;96.90
18339;DHT22;9295;44.484;11.240;2023-05-07T12:52:20;27.10;97.20
18339;DHT22;9295;44.484;11.240;2023-05-07T12:54:48;27.30;97.00
18339;DHT22;9295;44.484;11.240;2023-05-07T12:57:19;27.30;97.30
18339;DHT22;9295;44.484;11.240;2023-05-07T12:59:48;27.20;97.70
18339;DHT22;9295;44.484;11.240;2023-05-07T13:02:17;27.10;97.90
18339;DHT22;9295;44.484;11.240;2023-05-07T13:04:45;27.20;98.20
18339;DHT22;9295;44.484;11.240;2023-05-07T13:07:15;27.00;98.30
18339;DHT22;9295;44.484;11.240;2023-05-07T13:09:45;27.00;98.80
18339;DHT22;9295;44.484;11.240;2023-05-07T13:12:15;27.00;99.00
18339;DHT22;9295;44.484;11.240;2023-05-07T13:14:44;27.20;99.00
18339;DHT22;9295;44.484;11.240;2023-05-07T13:17:12;27.30;98.80
18339;DHT22;9295;44.484;11.240;2023-05-07T13:19:45;27.00;98.70
18339;DHT22;9295;44.484;11.240;2023-05-07T13:22:14;26.90;99.30
18339;DHT22;9295;44.484;11.240;2023-05-07T13:24:43;26.60;99.20
18339;DHT22;9295;44.484;11.240;2023-05-07T13:27:13;26.70;99.80
18339;DHT22;9295;44.484;11.240;2023-05-07T13:29:42;26.70;99.20
18339;DHT22;9295;44.484;11.240;2023-05-07T13:32:13;26.60;99.20
18339;DHT22;9295;44.484;11.240;2023-05-07T13:34:42;26.70;99.30
18339;DHT22;9295;44.484;11.240;2023-05-07T13:37:10;26.70;99.40
18339;DHT22;9295;44.484;11.240;2023-05-07T13:39:39;27.00;99.40
18339;DHT22;9295;44.484;11.240;2023-05-07T13:42:07;27.00;99.50
18339;DHT22;9295;44.484;11.240;2023-05-07T13:44:37;26.70;99.50
18339;DHT22;9295;44.484;11.240;2023-05-07T13:47:06;26.70;99.60
18339;DHT22;9295;44.484;11.240;2023-05-07T13:49:34;26.70;99.80
18339;DHT22;9295;44.484;11.240;2023-05-07T13:52:03;26.90;99.90
18339;DHT22;9295;44.484;11.240;2023-05-07T13:54:31;27.00;99.60
18339;DHT22;9295;44.484;11.240;2023-05-07T13:56:59;26.70;99.70
18339;DHT22;9295;44.484;11.240;2023-05-07T13:59:28;26.70;99.90
18339;DHT22;9295;44.484;11.240;2023-05-07T14:01:58;27.00;99.90
18339;DHT22;9295;44.484;11.240;2023-05-07T14:04:26;27.20;99.80
18339;DHT22;9295;44.484;11.240;2023-05-07T14:06:55;27.30;99.90
18339;DHT22;9295;44.484;11.240;2023-05-07T14:09:23;27.30;99.20
18339;DHT22;9295;44.484;11.240;2023-05-07T14:11:52;27.00;99.70
18339;DHT22;9295;44.484;11.240;2023-05-07T14:14:20;26.80;99.90
18339;DHT22;9295;44.484;11.240;2023-05-07T14:16:49;26.80;99.90
18339;DHT22;9295;44.484;11.240;2023-05-07T14:19:19;27.00;99.90
18339;DHT22;9295;44.484;11.240;2023-05-07T14:21:49;27.20;99.90
18339;DHT22;9295;44.484;11.240;2023-05-07T14:24:18;27.10;99.90
18339;DHT22;9295;44.484;11.240;2023-05-07T14:27:03;27.10;99.90
18339;DHT22;9295;44.484;11.240;2023-05-07T14:29:32;27.10;99.90
18339;DHT22;9295;44.484;11.240;2023-05-07T14:32:02;27.10;99.90
18339;DHT22;9295;44.484;11.240;2023-05-07T14:34:32;27.20;99.90
18339;DHT22;9295;44.484;11.240;2023-05-07T14:37:01;27.00;99.90
18339;DHT22;9295;44.484;11.240;2023-05-07T14:39:29;26.90;99.90
18339;DHT22;9295;44.484;11.240;2023-05-07T14:41:58;27.00;99.90
18339;DHT22;9295;44.484;11.240;2023-05-07T14:44:27;27.20;99.90
18339;DHT22;9295;44.484;11.240;2023-05-07T14:46:57;27.10;99.90
18339;DHT22;9295;44.484;11.240;2023-05-07T14:49:28;27.00;99.90
18339;DHT22;9295;44.484;11.240;2023-05-07T14:51:58;27.10;99.90
18339;DHT22;9295;44.484;11.240;2023-05-07T14:54:27;27.20;99.90
18339;DHT22;9295;44.484;11.240;2023-05-07T14:56:56;27.30;99.90
18339;DHT22;9295;44.484;11.240;2023-05-07T14:59:24;27.20;99.90
18339;DHT22;9295;44.484;11.240;2023-05-07T15:01:54;27.00;99.90
18339;DHT22;9295;44.484;11.240;2023-05-07T15:04:23;27.00;99.90
18339;DHT22;9295;44.484;11.240;2023-05-07T15:06:52;27.00;99.90
18339;DHT22;9295;44.484;11.240;2023-05-07T15:09:22;26.80;99.90
18339;DHT22;9295;44.484;11.240;2023-05-07T15:11:50;26.90;99.90
18339;DHT22;9295;44.484;11.240;2023-05-07T15:14:19;26.90;99.90
18339;DHT22;9295;44.484;11.240;2023-05-07T15:16:49;27.00;99.90
18339;DHT22;9295;44.484;11.240;2023-05-07T15:19:17;27.00;99.90
18339;DHT22;9295;44.484;11.240;2023-05-07T15:21:45;27.00;99.90
18339;DHT22;9295;44.484;11.240;2023-05-07T15:24:14;27.00;99.90
18339;DHT22;9295;44.484;11.240;2023-05-07T15:26:44;26.60;99.90
18339;DHT22;9295;44.484;11.240;2023-05-07T15:29:12;26.40;99.90
18339;DHT22;9295;44.484;11.240;2023-05-07T15:31:40;26.30;99.90
18339;DHT22;9295;44.484;11.240;2023-05-07T15:34:09;26.30;99.90
18339;DHT22;9295;44.484;11.240;2023-05-07T15:36:37;26.30;99.90
18339;DHT22;9295;44.484;11.240;2023-05-07T15:39:06;26.30;99.90
18339;DHT22;9295;44.484;11.240;2023-05-07T15:41:34;26.30;99.90
18339;DHT22;9295;44.484;11.240;2023-05-07T15:44:05;26.30;99.90
18339;DHT22;9295;44.484;11.240;2023-05-07T15:46:33;26.30;99.90
18339;DHT22;9295;44.484;11.240;2023-05-07T15:49:02;26.30;99.90
18339;DHT22;9295;44.484;11.240;2023-05-07T15:51:34;26.30;99.90
18339;DHT22;9295;44.484;11.240;2023-05-07T15:54:03;26.20;99.90